Time;durP1;ratioP1;P1;durP2;ratioP2;P2;SDS_P1;SDS_P2;PMS_P1;PMS_P2;Temp;Humidity;BMP_temperature;BMP_pressure;BME280_temperature;BME280_humidity;BME280_pressure;Samples;Min_cycle;Max_cycle;Signal;HPM_P1;HPM_P2
2021/08/11 05:00:40;;;;;;;8.10;7.07;;;;;;;27.19;54.65;94823.88;5857279;23;20445;-82
2021/08/11 05:03:05;;;;;;;8.65;6.72;;;;;;;28.27;51.38;94826.91;4956204;28;20066;-80
2021/08/11 05:05:31;;;;;;;7.07;6.43;;;;;;;27.95;52.12;94829.34;4969998;28;20530;-81
2021/08/11 05:07:56;;;;;;;8.38;7.57;;;;;;;28.90;50.65;94823.22;4969648;28;20045;-81
2021/08/11 05:10:22;;;;;;;7.00;6.30;;;;;;;30.01;47.69;94832.16;4969036;28;20492;-82
2021/08/11 05:12:48;;;;;;;6.93;6.40;;;;;;;30.02;48.16;94834.50;4974622;28;20053;-82
2021/08/11 05:15:13;;;;;;;7.38;6.68;;;;;;;31.16;45.01;94820.97;4989481;28;20073;-82
2021/08/11 05:17:38;;;;;;;6.75;6.25;;;;;;;30.25;47.34;94841.56;4988983;28;20060;-80
2021/08/11 05:20:04;;;;;;;7.15;6.45;;;;;;;30.87;46.41;94839.28;4989698;28;20030;-80
2021/08/11 05:22:30;;;;;;;11.27;6.55;;;;;;;31.51;45.14;94840.81;4988342;28;20038;-81
2021/08/11 05:24:55;;;;;;;7.03;6.25;;;;;;;31.09;45.59;94846.56;4989302;28;20026;-81
2021/08/11 05:27:21;;;;;;;7.30;6.50;;;;;;;32.36;42.99;94839.72;4978126;28;20046;-80
2021/08/11 05:29:46;;;;;;;6.55;5.97;;;;;;;33.21;41.94;94844.53;4948298;28;20034;-80
2021/08/11 05:32:13;;;;;;;7.03;6.15;;;;;;;33.47;41.17;94841.84;4967542;28;20138;-80
2021/08/11 05:34:38;;;;;;;6.47;5.90;;;;;;;33.66;40.84;94836.16;4967719;28;20396;-80
2021/08/11 05:37:04;;;;;;;5.97;5.57;;;;;;;33.35;41.29;94836.31;4970038;28;20034;-80
2021/08/11 05:39:29;;;;;;;6.40;5.82;;;;;;;30.76;45.79;94837.91;4968808;28;20030;-81
2021/08/11 05:41:55;;;;;;;8.18;7.20;;;;;;;30.41;46.29;94836.72;4973085;28;20066;-78
2021/08/11 05:44:21;;;;;;;7.15;6.45;;;;;;;32.00;42.75;94841.72;4980195;28;20046;-78
2021/08/11 05:46:46;;;;;;;6.28;5.78;;;;;;;31.82;43.41;94838.19;4971471;28;20027;-78
2021/08/11 05:49:12;;;;;;;7.68;6.20;;;;;;;33.14;40.68;94846.09;4973208;28;20031;-79
2021/08/11 05:51:38;;;;;;;10.23;6.00;;;;;;;32.30;41.85;94849.78;4972273;28;20059;-79
2021/08/11 05:54:04;;;;;;;8.60;6.60;;;;;;;32.20;41.63;94857.34;4973723;28;20046;-79
2021/08/11 05:56:30;;;;;;;8.10;6.28;;;;;;;32.98;41.20;94859.16;4971500;28;20476;-80
2021/08/11 05:58:55;;;;;;;7.60;6.30;;;;;;;34.88;37.46;94855.84;4972801;28;20081;-79
2021/08/11 06:01:24;;;;;;;7.30;6.50;;;;;;;34.17;38.39;94848.72;4986107;28;20051;-80
2021/08/11 06:03:55;;;;;;;6.65;6.00;;;;;;;34.47;38.11;94849.56;4979020;28;20026;-80
2021/08/11 06:06:21;;;;;;;6.72;6.18;;;;;;;32.08;41.96;94852.53;4972562;28;20061;-79
2021/08/11 06:08:46;;;;;;;11.38;6.03;;;;;;;31.09;43.77;94852.72;4970876;28;20458;-82
2021/08/11 06:11:12;;;;;;;8.15;6.20;;;;;;;31.33;44.93;94855.94;4976170;28;20022;-79
2021/08/11 06:13:37;;;;;;;7.03;6.00;;;;;;;31.61;43.59;94855.84;4986635;28;20042;-79
2021/08/11 06:16:03;;;;;;;6.07;5.57;;;;;;;30.37;46.26;94856.34;4970994;28;20033;-81
2021/08/11 06:18:29;;;;;;;7.43;6.07;;;;;;;29.26;47.30;94857.13;4974089;28;20022;-80
2021/08/11 06:20:55;;;;;;;6.35;5.75;;;;;;;32.18;42.38;94852.25;4990431;28;20019;-79
2021/08/11 06:23:20;;;;;;;5.97;5.53;;;;;;;34.93;36.95;94841.41;4984105;28;20026;-80
2021/08/11 06:25:46;;;;;;;6.40;5.80;;;;;;;34.58;36.86;94848.09;4979004;28;20039;-80
2021/08/11 06:28:11;;;;;;;5.88;5.47;;;;;;;34.29;36.98;94852.31;4989816;28;20606;-80
2021/08/11 06:30:37;;;;;;;11.27;6.30;;;;;;;36.57;33.54;94860.44;4974888;28;20113;-82
2021/08/11 06:33:02;;;;;;;7.07;6.47;;;;;;;36.89;31.51;94854.09;4985624;28;20042;-78
2021/08/11 06:35:28;;;;;;;6.45;5.90;;;;;;;36.60;32.38;94856.25;4977051;28;20571;-80
2021/08/11 06:37:53;;;;;;;6.85;6.18;;;;;;;32.30;38.98;94857.06;4973981;28;20034;-80
2021/08/11 06:40:20;;;;;;;6.50;6.00;;;;;;;32.26;40.59;94858.78;4991355;28;20045;-78
2021/08/11 06:42:45;;;;;;;9.48;6.32;;;;;;;31.26;41.63;94863.59;4988625;28;20118;-80
2021/08/11 06:45:12;;;;;;;6.57;5.95;;;;;;;29.31;44.95;94863.47;4991476;28;20054;-79
2021/08/11 06:47:37;;;;;;;7.57;6.18;;;;;;;30.36;43.95;94860.88;4988202;28;20069;-81
2021/08/11 06:50:04;;;;;;;6.38;5.90;;;;;;;32.55;40.41;94859.03;4990045;28;20416;-80
2021/08/11 06:52:33;;;;;;;8.90;6.38;;;;;;;32.72;39.57;94856.41;4989474;28;20034;-80
2021/08/11 06:55:00;;;;;;;5.75;5.35;;;;;;;32.13;40.25;94865.03;4989570;28;20029;-79
2021/08/11 06:57:26;;;;;;;10.80;5.90;;;;;;;34.54;36.01;94853.31;4977017;28;20034;-80
2021/08/11 06:59:51;;;;;;;6.20;5.60;;;;;;;36.05;33.13;94862.09;4978279;28;20023;-80
2021/08/11 07:02:17;;;;;;;7.15;6.47;;;;;;;36.70;32.69;94856.56;4979695;28;20061;-80
2021/08/11 07:04:42;;;;;;;10.00;6.63;;;;;;;33.12;37.72;94861.75;4980141;28;20050;-78
2021/08/11 07:07:08;;;;;;;7.47;6.68;;;;;;;32.07;41.09;94860.88;4988522;28;20029;-79
2021/08/11 07:09:33;;;;;;;6.78;6.28;;;;;;;32.10;40.37;94858.38;4986939;28;20474;-80
2021/08/11 07:11:59;;;;;;;9.57;6.30;;;;;;;31.88;41.69;94841.53;4981910;28;20027;-78
2021/08/11 07:14:24;;;;;;;6.78;6.07;;;;;;;32.36;40.10;94850.47;4973232;28;20033;-79
2021/08/11 07:16:50;;;;;;;7.53;6.50;;;;;;;31.98;41.55;94844.72;4988918;28;20484;-80
2021/08/11 07:19:15;;;;;;;6.90;6.40;;;;;;;30.20;44.37;94846.22;4981355;28;20029;-79
2021/08/11 07:21:40;;;;;;;7.70;6.32;;;;;;;30.43;44.37;94839.94;4985208;28;20400;-80
2021/08/11 07:24:06;;;;;;;6.70;6.20;;;;;;;31.15;42.68;94853.41;4989018;28;20038;-80
2021/08/11 07:26:31;;;;;;;7.40;6.70;;;;;;;30.56;43.22;94841.81;4987455;28;20034;-79
2021/08/11 07:28:57;;;;;;;7.22;6.53;;;;;;;31.08;42.85;94845.78;4989728;28;20023;-79
2021/08/11 07:31:22;;;;;;;9.52;6.85;;;;;;;31.31;41.99;94834.00;4988987;28;20495;-79
2021/08/11 07:33:48;;;;;;;8.05;6.10;;;;;;;31.10;43.06;94826.75;4989699;28;20022;-79
2021/08/11 07:36:13;;;;;;;8.27;7.60;;;;;;;31.76;42.73;94850.91;4971551;28;20472;-79
2021/08/11 07:38:39;;;;;;;7.50;6.65;;;;;;;32.12;41.90;94841.97;4960909;28;20085;-78
2021/08/11 07:41:04;;;;;;;6.75;6.18;;;;;;;31.32;43.03;94835.59;4969390;28;20412;-76
2021/08/11 07:43:29;;;;;;;7.50;6.70;;;;;;;31.90;40.86;94831.28;4968727;28;20023;-77
2021/08/11 07:48:30;;;;;;;8.20;7.15;;;;;;;29.01;44.82;94830.78;5022527;23;20056;-77
2021/08/11 07:50:56;;;;;;;8.68;6.60;;;;;;;31.39;43.50;94840.53;4909642;29;20095;-77
2021/08/11 07:53:21;;;;;;;6.95;6.40;;;;;;;31.99;41.79;94832.91;4926295;29;20036;-77
2021/08/11 07:55:46;;;;;;;6.35;5.88;;;;;;;32.43;40.15;94833.91;4925935;29;20034;-77
2021/08/11 07:58:12;;;;;;;7.20;6.50;;;;;;;32.91;40.31;94815.09;4913734;29;20409;-77
2021/08/11 08:00:37;;;;;;;7.97;6.15;;;;;;;32.65;40.11;94821.22;4914124;29;20039;-77
2021/08/11 08:03:03;;;;;;;7.07;6.03;;;;;;;32.03;40.91;94833.88;4929195;29;20031;-75
2021/08/11 08:05:28;;;;;;;6.90;6.32;;;;;;;31.82;41.18;94814.81;4914540;29;20028;-75
2021/08/11 08:07:54;;;;;;;6.57;5.97;;;;;;;33.03;39.78;94826.81;4911335;29;20040;-76
2021/08/11 08:10:19;;;;;;;6.18;5.68;;;;;;;31.98;40.86;94835.91;4913013;29;20043;-75
2021/08/11 08:12:45;;;;;;;7.32;5.95;;;;;;;33.24;39.78;94829.66;4910479;29;20032;-75
2021/08/11 08:15:12;;;;;;;6.82;6.05;;;;;;;32.50;38.52;94832.34;4921975;29;20404;-76
2021/08/11 08:17:38;;;;;;;6.53;5.90;;;;;;;32.21;39.95;94824.81;4904157;29;20020;-76
2021/08/11 08:20:04;;;;;;;6.78;5.75;;;;;;;32.38;39.06;94819.53;4920298;29;20500;-76
2021/08/11 08:22:29;;;;;;;8.88;5.78;;;;;;;31.74;39.99;94812.09;4928400;29;20035;-77
2021/08/11 08:24:55;;;;;;;6.97;6.38;;;;;;;30.10;42.26;94804.44;4913236;29;20031;-76
2021/08/11 08:27:24;;;;;;;6.40;5.82;;;;;;;32.10;39.52;94814.69;4926723;29;20046;-77
2021/08/11 08:29:50;;;;;;;6.32;5.72;;;;;;;33.28;39.10;94809.13;4886748;29;20047;-77
2021/08/11 08:32:16;;;;;;;6.63;5.50;;;;;;;33.32;36.82;94810.88;4917828;29;20039;-77
2021/08/11 08:34:41;;;;;;;5.47;5.00;;;;;;;32.07;38.13;94810.75;4906519;29;20024;-77
2021/08/11 08:37:07;;;;;;;7.05;5.15;;;;;;;33.37;37.14;94805.34;4928960;29;20067;-76
2021/08/11 08:39:32;;;;;;;6.40;5.80;;;;;;;32.80;37.52;94799.28;4931266;29;20047;-76
2021/08/11 08:41:58;;;;;;;5.93;5.28;;;;;;;33.72;36.72;94794.53;4929324;29;20066;-76
2021/08/11 08:44:23;;;;;;;6.95;5.35;;;;;;;31.98;37.92;94798.38;4920172;29;20028;-75
2021/08/11 08:46:50;;;;;;;5.50;5.00;;;;;;;33.35;36.52;94793.34;4918130;29;20393;-75
2021/08/11 08:49:16;;;;;;;6.60;5.15;;;;;;;31.80;36.07;94781.41;4934263;29;20027;-76
2021/08/11 08:51:53;;;;;;;6.00;5.00;;;;;;;32.12;34.38;94789.13;4932153;29;20032;-76
2021/08/11 08:54:25;;;;;;;6.93;5.20;;;;;;;33.29;35.24;94789.22;4918436;29;20124;-76
2021/08/11 08:56:50;;;;;;;5.20;4.68;;;;;;;33.23;33.89;94785.13;4917048;29;20024;-76
2021/08/11 08:59:16;;;;;;;7.28;5.00;;;;;;;33.26;34.26;94784.50;4930638;28;20819;-77
2021/08/11 09:01:43;;;;;;;6.50;4.95;;;;;;;33.87;34.31;94780.59;4951097;28;20027;-76
2021/08/11 09:04:09;;;;;;;5.50;4.40;;;;;;;33.87;33.74;94786.78;4929550;29;20390;-76
2021/08/11 09:06:34;;;;;;;4.63;4.25;;;;;;;34.33;33.99;94783.28;4934051;29;20508;-75
2021/08/11 09:09:07;;;;;;;5.32;4.82;;;;;;;34.46;31.45;94781.47;4910137;29;20087;-76
2021/08/11 09:11:43;;;;;;;4.97;4.57;;;;;;;34.17;32.68;94782.25;4891975;29;20032;-76
2021/08/11 09:14:20;;;;;;;5.05;4.55;;;;;;;34.06;31.54;94780.22;4946679;28;20023;-77
2021/08/11 09:16:47;;;;;;;4.75;4.43;;;;;;;32.37;33.44;94774.22;4930684;29;20027;-78
2021/08/11 09:19:12;;;;;;;5.57;4.78;;;;;;;31.56;34.25;94779.09;4915152;29;20138;-78
2021/08/11 09:21:38;;;;;;;8.05;4.75;;;;;;;32.12;34.59;94782.97;4946778;29;20093;-78
2021/08/11 09:24:15;;;;;;;4.40;4.10;;;;;;;32.47;32.49;94773.94;4931858;29;20110;-78
2021/08/11 09:26:42;;;;;;;5.13;4.65;;;;;;;33.00;32.60;94773.72;4932722;29;20051;-77
2021/08/11 09:29:08;;;;;;;4.47;4.18;;;;;;;33.73;30.77;94767.34;4946444;28;20541;-77
2021/08/11 09:31:33;;;;;;;4.57;4.13;;;;;;;33.65;32.98;94770.84;4948822;28;20035;-77
2021/08/11 09:34:03;;;;;;;5.00;4.28;;;;;;;33.42;32.16;94771.34;4962107;28;20023;-77
2021/08/11 09:36:42;;;;;;;4.93;4.50;;;;;;;33.71;32.65;94774.97;4944158;28;20429;-87
2021/08/11 09:39:08;;;;;;;5.30;4.40;;;;;;;33.02;32.54;94778.75;4950833;28;20042;-81
2021/08/11 09:41:33;;;;;;;5.57;4.47;;;;;;;33.15;33.21;94775.16;4956302;28;20039;-82
2021/08/11 09:44:09;;;;;;;7.13;4.18;;;;;;;32.88;32.67;94744.81;4964226;28;20110;-82
2021/08/11 09:46:35;;;;;;;4.38;4.07;;;;;;;32.64;32.85;94767.84;4946701;28;20749;-82
2021/08/11 09:49:00;;;;;;;4.15;3.75;;;;;;;31.94;33.15;94762.53;4927431;29;20051;-81
2021/08/11 09:51:26;;;;;;;5.75;4.00;;;;;;;31.76;32.14;94769.69;4956786;28;20027;-85
2021/08/11 09:53:51;;;;;;;3.88;3.50;;;;;;;32.86;32.70;94771.19;4965582;28;20027;-84
2021/08/11 09:56:17;;;;;;;5.60;3.97;;;;;;;32.94;33.04;94752.72;4929718;28;20027;-82
2021/08/11 09:59:02;;;;;;;5.05;4.32;;;;;;;33.17;33.04;94762.22;4916687;28;20117;-82
2021/08/11 10:01:27;;;;;;;4.57;4.15;;;;;;;33.25;31.32;94762.22;4935973;28;20109;-81
2021/08/11 10:04:14;;;;;;;4.82;3.92;;;;;;;33.54;32.54;94742.72;4932374;28;20023;-79
2021/08/11 10:06:41;;;;;;;4.43;4.13;;;;;;;33.69;31.67;94750.28;4950728;28;20027;-81
2021/08/11 10:09:16;;;;;;;9.25;4.18;;;;;;;34.11;31.80;94745.09;4965025;28;20102;-81
2021/08/11 10:11:58;;;;;;;4.10;3.70;;;;;;;32.56;31.96;94747.91;4967822;28;20535;-81
2021/08/11 10:14:28;;;;;;;3.80;3.50;;;;;;;31.65;33.56;94747.75;4935857;28;20118;-81
2021/08/11 10:16:54;;;;;;;4.35;3.95;;;;;;;32.51;31.82;94736.53;4934989;28;20030;-81
2021/08/11 10:19:25;;;;;;;3.95;3.55;;;;;;;32.24;32.95;94729.53;4933761;28;20114;-81
2021/08/11 10:22:07;;;;;;;4.40;4.00;;;;;;;31.71;33.16;94741.16;4948445;28;20037;-81
2021/08/11 10:24:34;;;;;;;4.88;4.00;;;;;;;32.69;32.28;94724.75;4949361;28;20022;-81
2021/08/11 10:27:00;;;;;;;4.13;3.83;;;;;;;33.91;30.64;94725.84;4945081;28;20043;-79
2021/08/11 10:29:25;;;;;;;4.40;4.03;;;;;;;33.65;31.77;94725.16;4943729;28;20050;-81
2021/08/11 10:31:51;;;;;;;4.95;3.80;;;;;;;33.11;32.43;94726.66;4952383;28;20023;-81
2021/08/11 10:34:17;;;;;;;4.32;4.03;;;;;;;32.54;33.63;94714.44;4951728;28;20085;-80
2021/08/11 10:36:43;;;;;;;5.35;3.83;;;;;;;32.38;33.13;94717.59;4937333;28;20027;-80
2021/08/11 10:39:09;;;;;;;3.97;3.67;;;;;;;32.05;34.62;94718.28;4952165;28;20109;-81
2021/08/11 10:41:34;;;;;;;5.10;3.90;;;;;;;32.40;34.06;94703.84;4953405;28;20561;-82
2021/08/11 10:44:01;;;;;;;3.90;3.60;;;;;;;32.85;33.26;94710.53;4937175;28;20031;-80
2021/08/11 10:46:42;;;;;;;4.00;3.60;;;;;;;33.27;33.34;94710.84;4921722;28;20553;-80
2021/08/11 10:49:08;;;;;;;5.97;3.88;;;;;;;33.27;33.40;94705.47;4935943;28;20550;-79
2021/08/11 10:51:41;;;;;;;4.20;3.80;;;;;;;32.57;33.60;94690.50;4951768;28;20061;-80
2021/08/11 10:54:07;;;;;;;5.00;3.90;;;;;;;31.96;34.25;94704.84;4921317;28;20093;-82
2021/08/11 10:56:51;;;;;;;4.30;3.40;;;;;;;32.87;33.44;94708.34;4937261;29;20035;-80
2021/08/11 10:59:27;;;;;;;3.65;3.42;;;;;;;32.30;32.83;94704.94;4954457;28;20029;-77
2021/08/11 11:01:53;;;;;;;4.18;3.88;;;;;;;32.72;32.34;94692.69;4960800;28;20031;-81
2021/08/11 11:04:49;;;;;;;3.63;3.33;;;;;;;32.07;34.19;94694.66;4936564;28;20027;-82
2021/08/11 11:07:16;;;;;;;3.90;3.38;;;;;;;32.01;34.75;94691.31;4946865;28;20035;-81
2021/08/11 11:09:45;;;;;;;4.68;3.75;;;;;;;31.54;36.10;94687.50;4969035;28;20114;-80
2021/08/11 11:12:17;;;;;;;4.15;3.85;;;;;;;32.26;34.74;94687.13;4951171;28;20440;-80
2021/08/11 11:14:43;;;;;;;9.10;4.20;;;;;;;31.65;35.09;94678.09;4963964;28;20110;-80
2021/08/11 11:17:09;;;;;;;4.38;3.60;;;;;;;32.31;33.24;94670.88;4950951;28;20567;-80
2021/08/11 11:19:34;;;;;;;3.35;3.03;;;;;;;32.96;33.66;94672.63;4969724;28;20023;-78
2021/08/11 11:22:34;;;;;;;4.20;3.88;;;;;;;33.01;33.82;94667.13;4951052;28;20515;-79
2021/08/11 11:24:59;;;;;;;4.05;3.63;;;;;;;33.03;33.23;94659.50;4967947;28;20523;-78
2021/08/11 11:27:52;;;;;;;4.53;4.10;;;;;;;32.83;32.48;94653.69;4969053;28;20023;-79
2021/08/11 11:30:26;;;;;;;4.45;4.05;;;;;;;33.08;32.85;94662.03;4969186;28;20753;-78
2021/08/11 11:32:52;;;;;;;6.00;4.05;;;;;;;32.61;33.94;94653.88;4970367;28;20031;-76
2021/08/11 11:35:18;;;;;;;6.47;4.35;;;;;;;33.51;34.18;94656.56;4968288;28;20515;-79
2021/08/11 11:37:44;;;;;;;5.40;4.38;;;;;;;32.47;34.21;94652.41;4969092;28;20137;-77
2021/08/11 11:40:11;;;;;;;5.38;3.88;;;;;;;33.51;33.86;94645.81;4968180;28;20476;-78
2021/08/11 11:42:37;;;;;;;4.45;4.05;;;;;;;33.26;33.09;94648.28;4969043;28;20117;-79
2021/08/11 11:45:08;;;;;;;5.68;4.05;;;;;;;33.30;33.51;94645.72;4969500;28;20066;-78
2021/08/11 11:50:25;;;;;;;5.85;3.92;;;;;;;33.13;33.88;94645.78;4963706;28;20051;-76
2021/08/11 11:52:53;;;;;;;5.22;4.38;;;;;;;33.06;33.61;94643.56;4953476;28;20031;-79
2021/08/11 11:55:26;;;;;;;4.35;3.97;;;;;;;33.63;32.14;94641.38;4926970;28;20050;-77
2021/08/11 11:57:55;;;;;;;8.27;3.70;;;;;;;33.26;32.47;94647.50;4915430;28;20043;-76
2021/08/11 12:00:20;;;;;;;4.70;4.10;;;;;;;33.44;32.74;94630.19;4984083;28;20027;-78
2021/08/11 12:02:50;;;;;;;4.53;4.05;;;;;;;33.82;32.51;94612.16;4968487;28;20030;-76
2021/08/11 12:05:15;;;;;;;4.07;3.78;;;;;;;33.74;31.90;94626.47;4967015;28;20431;-76
2021/08/11 12:07:41;;;;;;;4.25;3.67;;;;;;;33.44;32.13;94622.13;4960269;28;20035;-78
2021/08/11 12:10:07;;;;;;;4.85;3.80;;;;;;;33.61;31.75;94624.00;4967741;28;20027;-76
2021/08/11 12:12:32;;;;;;;4.28;3.83;;;;;;;33.07;32.32;94614.81;4968637;28;20034;-75
2021/08/11 12:15:17;;;;;;;4.32;3.97;;;;;;;33.07;32.35;94617.50;4949292;28;20105;-77
2021/08/11 12:17:43;;;;;;;4.32;3.97;;;;;;;33.50;32.45;94614.66;4967801;28;20031;-78
2021/08/11 12:20:31;;;;;;;4.85;3.40;;;;;;;33.46;31.61;94617.22;5000816;28;20408;-76
2021/08/11 12:22:58;;;;;;;4.53;3.58;;;;;;;33.36;31.99;94612.97;4960366;28;20034;-76
2021/08/11 12:25:24;;;;;;;4.40;3.53;;;;;;;33.23;32.52;94615.91;4963406;28;20432;-76
2021/08/11 12:28:21;;;;;;;4.78;3.25;;;;;;;33.12;31.38;94606.59;4983432;28;20503;-76
2021/08/11 12:30:53;;;;;;;3.67;3.20;;;;;;;33.11;30.86;94611.19;4951911;28;20038;-78
2021/08/11 12:33:19;;;;;;;3.70;3.40;;;;;;;33.15;30.97;94605.97;4971392;28;20059;-75
2021/08/11 12:35:45;;;;;;;5.40;3.60;;;;;;;33.05;31.71;94600.91;4954706;28;20023;-78
2021/08/11 12:38:10;;;;;;;3.75;3.08;;;;;;;33.67;31.04;94604.66;4964103;28;20037;-78
2021/08/11 12:40:37;;;;;;;6.32;3.80;;;;;;;32.95;31.45;94603.91;4957330;28;20023;-76
2021/08/11 12:43:03;;;;;;;4.65;4.18;;;;;;;33.02;31.09;94602.34;4948159;28;20054;-75
2021/08/11 12:45:48;;;;;;;4.07;3.50;;;;;;;32.86;31.64;94599.38;4947181;29;20027;-77
2021/08/11 12:48:24;;;;;;;7.35;4.05;;;;;;;33.50;31.81;94583.22;4945157;28;20121;-78
2021/08/11 12:50:50;;;;;;;5.00;3.70;;;;;;;33.14;30.97;94593.63;4946166;29;20995;-76
2021/08/11 12:53:32;;;;;;;5.22;4.03;;;;;;;33.12;31.83;94603.91;4944559;29;20030;-78
2021/08/11 12:56:11;;;;;;;4.00;3.70;;;;;;;33.17;31.51;94595.69;4945814;28;20054;-79
2021/08/11 12:58:59;;;;;;;4.18;3.88;;;;;;;32.75;31.99;94598.13;4962092;28;20042;-79
2021/08/11 13:01:36;;;;;;;6.50;3.80;;;;;;;32.51;32.32;94594.34;4946771;29;20027;-76
2021/08/11 13:04:26;;;;;;;7.70;3.65;;;;;;;32.43;32.00;94590.53;4961347;28;20077;-79
2021/08/11 13:06:52;;;;;;;4.75;4.35;;;;;;;33.01;31.81;94586.56;4946110;29;20079;-81
2021/08/11 13:09:24;;;;;;;4.38;4.07;;;;;;;32.59;31.77;94586.31;4929333;29;20479;-84
2021/08/11 13:12:08;;;;;;;3.97;3.67;;;;;;;32.60;31.61;94569.09;4946514;29;20090;-80
2021/08/11 13:14:49;;;;;;;6.55;3.90;;;;;;;33.12;31.13;94579.75;4951462;28;20070;-79
2021/08/11 13:17:36;;;;;;;6.10;4.20;;;;;;;32.50;31.76;94582.81;4965059;28;20058;-78
2021/08/11 13:20:11;;;;;;;4.30;3.90;;;;;;;32.72;31.11;94585.34;4967293;28;20031;-78
2021/08/11 13:22:37;;;;;;;3.65;3.38;;;;;;;32.62;30.80;94583.00;4945903;29;20083;-80
2021/08/11 13:25:02;;;;;;;4.35;3.40;;;;;;;32.79;30.65;94577.59;4929784;29;20027;-80
2021/08/11 13:27:28;;;;;;;5.95;3.90;;;;;;;32.72;30.42;94573.84;4945134;28;20031;-80
2021/08/11 13:29:56;;;;;;;5.85;4.03;;;;;;;32.71;31.11;94575.72;4977000;28;20031;-81
2021/08/11 13:32:25;;;;;;;;;;;;;;;32.58;30.87;94579.38;4983849;28;20109;-81
2021/08/11 13:34:51;;;;;;;4.40;3.67;;;;;;;32.43;30.76;94573.69;4975292;28;19918;-79
2021/08/11 13:37:16;;;;;;;5.53;4.32;;;;;;;32.33;30.54;94564.84;4965080;28;20038;-77
2021/08/11 13:39:43;;;;;;;4.25;3.95;;;;;;;32.83;30.38;94573.16;4962769;28;20023;-81
2021/08/11 13:42:08;;;;;;;3.90;3.50;;;;;;;32.49;30.23;94567.84;4962747;28;20045;-83
2021/08/11 13:44:34;;;;;;;4.05;3.65;;;;;;;32.60;30.92;94577.16;4977537;28;20052;-81
2021/08/11 13:46:59;;;;;;;4.30;3.97;;;;;;;32.34;31.25;94577.16;4972712;28;20027;-82
2021/08/11 13:49:25;;;;;;;5.00;4.00;;;;;;;32.49;30.85;94549.06;4973061;28;20031;-82
2021/08/11 13:51:53;;;;;;;4.10;3.60;;;;;;;32.26;31.04;94558.38;4960602;28;20134;-78
2021/08/11 13:54:20;;;;;;;6.25;3.90;;;;;;;32.62;31.00;94566.91;4947756;28;20043;-76
2021/08/11 13:56:46;;;;;;;4.32;4.03;;;;;;;32.14;31.66;94558.25;4964012;28;20035;-79
2021/08/11 13:59:11;;;;;;;4.47;3.97;;;;;;;31.98;31.63;94568.59;4959755;28;20027;-80
2021/08/11 14:01:36;;;;;;;5.80;4.15;;;;;;;31.98;31.59;94559.78;4964163;28;20041;-78
2021/08/11 14:04:02;;;;;;;4.13;3.58;;;;;;;32.07;31.79;94563.28;4935857;28;20488;-83
2021/08/11 14:06:27;;;;;;;4.10;3.80;;;;;;;32.51;32.12;94570.19;4982601;28;20034;-81
2021/08/11 14:08:53;;;;;;;4.90;3.70;;;;;;;32.22;32.15;94562.78;4965131;28;20086;-79
2021/08/11 14:11:18;;;;;;;4.07;3.67;;;;;;;32.25;32.93;94565.63;4960051;28;20038;-82
2021/08/11 14:13:44;;;;;;;5.78;3.60;;;;;;;32.30;33.13;94578.88;4969239;28;20034;-82
2021/08/11 14:16:09;;;;;;;3.97;3.60;;;;;;;32.61;32.34;94573.38;4991462;28;20480;-80
2021/08/11 14:18:35;;;;;;;3.67;3.38;;;;;;;32.32;32.90;94573.22;4970975;28;20579;-88
2021/08/11 14:21:00;;;;;;;5.30;4.03;;;;;;;31.92;33.89;94571.75;4970627;28;20113;-84
2021/08/11 14:23:26;;;;;;;6.50;3.85;;;;;;;31.58;34.63;94577.81;4969253;28;20035;-83
2021/08/11 14:25:51;;;;;;;5.25;4.65;;;;;;;31.67;34.78;94570.59;4970045;28;20031;-79
2021/08/11 14:28:16;;;;;;;4.90;4.43;;;;;;;31.85;34.65;94574.91;4967919;28;20034;-85
2021/08/11 14:30:42;;;;;;;5.00;4.13;;;;;;;32.01;34.11;94567.19;4968750;28;20026;-82
2021/08/11 14:33:07;;;;;;;5.53;4.22;;;;;;;31.70;34.82;94567.28;4967208;28;20062;-86
2021/08/11 14:35:33;;;;;;;5.57;4.05;;;;;;;31.72;35.03;94554.38;4968273;28;20035;-79
2021/08/11 14:37:58;;;;;;;4.53;4.10;;;;;;;31.74;34.51;94563.69;4978165;28;20034;-77
2021/08/11 14:40:24;;;;;;;5.25;4.22;;;;;;;31.60;34.48;94572.94;4963247;28;20035;-81
2021/08/11 14:42:49;;;;;;;4.93;4.38;;;;;;;31.44;34.67;94566.41;4973815;28;20038;-79
2021/08/11 14:45:15;;;;;;;5.13;4.72;;;;;;;31.37;35.02;94563.41;4961162;28;20026;-79
2021/08/11 14:47:41;;;;;;;4.95;4.45;;;;;;;31.40;35.00;94557.44;4957743;28;20047;-80
2021/08/11 14:50:07;;;;;;;9.40;4.00;;;;;;;31.42;35.13;94564.06;4973396;28;20034;-81
2021/08/11 14:52:33;;;;;;;4.32;3.92;;;;;;;31.23;35.14;94560.84;4974797;28;20439;-79
2021/08/11 14:54:58;;;;;;;4.68;4.38;;;;;;;31.01;35.73;94556.34;4963278;28;20042;-83
2021/08/11 14:57:23;;;;;;;5.75;3.88;;;;;;;31.15;35.59;94556.22;4982165;28;20038;-82
2021/08/11 14:59:49;;;;;;;12.98;11.63;;;;;;;30.80;35.44;94545.34;4971678;28;20026;-79
2021/08/11 15:02:14;;;;;;;8.10;7.30;;;;;;;30.77;35.90;94551.31;4970365;28;20027;-80
2021/08/11 15:04:40;;;;;;;6.47;4.60;;;;;;;30.68;35.58;94558.50;4960272;28;20452;-80
2021/08/11 15:07:05;;;;;;;5.68;5.22;;;;;;;30.61;36.38;94560.03;4957491;28;20031;-80
2021/08/11 15:09:31;;;;;;;9.77;8.98;;;;;;;30.55;36.31;94556.69;4960190;28;20501;-80
2021/08/11 15:11:56;;;;;;;7.65;6.95;;;;;;;30.51;35.18;94563.72;4958229;28;20089;-80
2021/08/11 15:14:22;;;;;;;12.55;11.65;;;;;;;30.37;36.12;94557.66;4957030;28;20082;-80
2021/08/11 15:16:47;;;;;;;8.15;5.97;;;;;;;30.14;36.19;94566.75;4956850;28;20055;-80
2021/08/11 15:19:13;;;;;;;7.47;6.88;;;;;;;30.04;36.89;94561.63;4958284;28;20039;-79
2021/08/11 15:21:38;;;;;;;8.23;7.63;;;;;;;30.01;36.96;94567.56;4957896;28;20485;-79
2021/08/11 15:24:04;;;;;;;8.85;6.80;;;;;;;29.88;36.78;94569.19;4956160;28;20689;-80
2021/08/11 15:26:29;;;;;;;24.00;21.65;;;;;;;29.85;36.81;94566.34;4973144;28;20103;-79
2021/08/11 15:28:55;;;;;;;12.05;9.80;;;;;;;29.97;37.07;94564.72;4970068;28;20567;-77
2021/08/11 15:31:21;;;;;;;8.05;7.35;;;;;;;30.11;36.41;94568.16;4957435;28;20031;-81
2021/08/11 15:33:46;;;;;;;9.50;8.70;;;;;;;30.20;37.31;94571.69;4958340;28;20074;-79
2021/08/11 15:36:12;;;;;;;9.85;9.00;;;;;;;30.24;38.14;94575.34;4957024;28;20030;-79
2021/08/11 15:38:38;;;;;;;8.05;7.45;;;;;;;30.19;37.41;94580.78;4949492;28;20050;-79
2021/08/11 15:41:03;;;;;;;6.65;6.15;;;;;;;30.08;37.38;94575.97;4980279;28;20027;-78
2021/08/11 15:43:29;;;;;;;8.05;7.32;;;;;;;29.97;37.28;94574.59;4950512;28;20111;-79
2021/08/11 15:45:54;;;;;;;7.38;6.68;;;;;;;29.94;36.92;94577.88;4959795;28;20497;-77
2021/08/11 15:48:20;;;;;;;16.98;13.35;;;;;;;29.97;36.74;94580.75;4961613;28;20051;-78
2021/08/11 15:50:46;;;;;;;51.92;32.08;;;;;;;30.01;37.10;94583.63;4958600;28;20062;-81
2021/08/11 15:53:11;;;;;;;11.27;9.60;;;;;;;29.99;37.02;94585.81;4967087;28;20066;-79
2021/08/11 15:55:36;;;;;;;13.10;10.20;;;;;;;30.00;37.21;94582.81;4981149;28;20047;-79
2021/08/11 15:58:02;;;;;;;6.25;5.55;;;;;;;29.94;37.78;94593.91;4978730;28;20041;-79
2021/08/11 16:00:28;;;;;;;8.35;7.65;;;;;;;29.97;38.35;94590.63;4981149;28;20031;-78
2021/08/11 16:02:53;;;;;;;6.13;5.55;;;;;;;29.97;38.73;94586.09;4964422;28;20027;-80
2021/08/11 16:05:20;;;;;;;6.00;5.43;;;;;;;30.02;38.70;94593.97;4968115;28;20035;-79
2021/08/11 16:07:46;;;;;;;6.32;5.88;;;;;;;29.89;38.60;94600.19;4969962;28;20030;-79
2021/08/11 16:10:11;;;;;;;8.05;7.35;;;;;;;29.88;38.88;94593.25;4967632;28;20109;-80
2021/08/11 16:12:37;;;;;;;8.00;7.30;;;;;;;29.79;39.13;94593.13;4967600;28;20109;-80
2021/08/11 16:15:03;;;;;;;8.07;7.38;;;;;;;29.62;39.42;94594.84;4967932;28;20030;-79
2021/08/11 16:17:29;;;;;;;10.80;6.30;;;;;;;29.49;39.51;94606.31;4979824;28;20086;-77
2021/08/11 16:19:54;;;;;;;9.50;7.30;;;;;;;29.39;39.50;94593.94;4958465;28;20035;-79
2021/08/11 16:22:20;;;;;;;9.95;6.80;;;;;;;29.29;39.60;94597.59;4955348;28;20031;-79
2021/08/11 16:24:45;;;;;;;6.78;5.68;;;;;;;29.19;39.27;94602.31;4975400;28;20937;-80
2021/08/11 16:27:11;;;;;;;5.50;5.00;;;;;;;29.17;39.19;94605.28;4969309;28;20037;-79
2021/08/11 16:29:36;;;;;;;6.45;5.80;;;;;;;29.12;39.55;94604.59;4980098;28;20031;-78
2021/08/11 16:32:04;;;;;;;8.32;5.53;;;;;;;29.04;40.20;94599.94;4946945;29;20046;-79
2021/08/11 16:34:29;;;;;;;5.40;4.90;;;;;;;28.88;40.88;94606.63;4945013;29;20031;-78
2021/08/11 16:36:55;;;;;;;6.85;6.20;;;;;;;28.84;40.24;94616.28;4974284;28;20031;-79
2021/08/11 16:39:20;;;;;;;5.57;5.13;;;;;;;28.71;40.24;94617.81;4985336;28;20653;-78
2021/08/11 16:41:46;;;;;;;7.20;6.50;;;;;;;28.66;40.86;94620.59;4984574;28;20430;-79